createdAt,value
2018-12-05T00:00:10.520Z,13.70
2018-12-05T00:02:38.785Z,14.67
2018-12-05T00:05:06.556Z,14.63
2018-12-05T00:07:34.237Z,14.13
2018-12-05T00:10:02.164Z,15.07
2018-12-05T00:12:30.079Z,14.50
2018-12-05T00:14:57.708Z,13.67
2018-12-05T00:17:25.542Z,14.50
2018-12-05T00:19:53.312Z,14.77
2018-12-05T00:22:20.901Z,13.17
2018-12-05T00:24:48.635Z,15.23
2018-12-05T00:27:16.295Z,15.43
2018-12-05T00:29:43.919Z,15.77
2018-12-05T00:32:11.615Z,15.20
2018-12-05T00:34:39.287Z,13.37
2018-12-05T00:37:07.038Z,13.90
2018-12-05T00:39:34.802Z,15.90
2018-12-05T00:42:02.421Z,15.87
2018-12-05T00:44:30.330Z,14.90
2018-12-05T00:46:58.454Z,15.60
2018-12-05T00:49:26.047Z,15.40
2018-12-05T00:51:53.650Z,15.10
2018-12-05T00:54:21.338Z,14.20
2018-12-05T00:56:49.056Z,13.60
2018-12-05T00:59:16.719Z,14.77
2018-12-05T01:01:44.379Z,14.50
2018-12-05T01:04:11.966Z,14.37
2018-12-05T01:06:39.649Z,15.60
2018-12-05T01:09:10.591Z,14.30
2018-12-05T01:11:38.251Z,14.90
2018-12-05T01:14:06.287Z,13.93
2018-12-05T01:16:33.888Z,13.27
2018-12-05T01:19:01.485Z,13.47
2018-12-05T01:21:29.239Z,14.10
2018-12-05T01:23:56.853Z,14.47
2018-12-05T01:26:24.458Z,14.23
2018-12-05T01:28:52.269Z,13.33
2018-12-05T01:31:19.986Z,14.40
2018-12-05T01:33:47.739Z,13.90
2018-12-05T01:36:15.493Z,15.23
2018-12-05T01:38:43.170Z,15.20
2018-12-05T01:41:10.850Z,15.63
2018-12-05T01:43:44.057Z,15.87
2018-12-05T01:46:11.665Z,15.27
2018-12-05T01:48:39.326Z,15.83
2018-12-05T01:51:06.912Z,14.33
2018-12-05T01:53:34.561Z,17.30
2018-12-05T01:56:02.409Z,15.30
2018-12-05T01:58:30.069Z,17.30
2018-12-05T02:00:59.163Z,16.93
2018-12-05T02:03:26.839Z,15.80
2018-12-05T02:05:55.217Z,15.50
2018-12-05T02:08:22.963Z,15.63
2018-12-05T02:10:50.737Z,14.17
2018-12-05T02:13:18.537Z,14.93
2018-12-05T02:15:46.355Z,16.60
2018-12-05T02:18:13.964Z,15.33
2018-12-05T02:20:41.931Z,17.27
2018-12-05T02:23:09.663Z,15.97
2018-12-05T02:25:38.117Z,16.47
2018-12-05T02:28:05.884Z,16.93
2018-12-05T02:30:33.563Z,17.27
2018-12-05T02:33:01.166Z,17.03
2018-12-05T02:35:28.787Z,17.80
2018-12-05T02:37:56.398Z,16.43
2018-12-05T02:40:24.108Z,15.70
2018-12-05T02:42:51.745Z,16.87
2018-12-05T02:45:19.417Z,17.17
2018-12-05T02:47:47.167Z,15.43
2018-12-05T02:50:14.930Z,17.20
2018-12-05T02:52:42.517Z,15.70
2018-12-05T02:55:10.203Z,16.73
2018-12-05T02:57:37.928Z,16.17
2018-12-05T03:00:06.274Z,16.23
2018-12-05T03:02:34.072Z,17.73
2018-12-05T03:05:02.046Z,16.70
2018-12-05T03:07:29.701Z,17.63
2018-12-05T03:09:57.339Z,17.43
2018-12-05T03:12:24.965Z,18.10
2018-12-05T03:14:52.677Z,18.50
2018-12-05T03:17:20.422Z,16.40
2018-12-05T03:19:48.033Z,16.90
2018-12-05T03:22:15.743Z,18.97
2018-12-05T03:24:44.120Z,17.30
2018-12-05T03:27:11.701Z,18.23
2018-12-05T03:29:39.314Z,18.57
2018-12-05T03:32:07.009Z,18.80
2018-12-05T03:34:34.658Z,17.87
2018-12-05T03:37:02.244Z,17.40
2018-12-05T03:39:29.981Z,19.90
2018-12-05T03:41:57.655Z,20.70
2018-12-05T03:44:25.323Z,21.17
2018-12-05T03:46:52.902Z,18.90
2018-12-05T03:49:20.566Z,23.80
2018-12-05T03:51:48.196Z,24.30
2018-12-05T03:54:15.853Z,28.60
2018-12-05T03:56:43.527Z,29.37
2018-12-05T03:59:11.180Z,30.43
2018-12-05T04:01:38.837Z,33.53
2018-12-05T04:04:06.499Z,34.13
2018-12-05T04:06:34.160Z,38.17
2018-12-05T04:09:01.821Z,36.57
2018-12-05T04:11:29.480Z,35.07
2018-12-05T04:13:57.081Z,35.17
2018-12-05T04:16:24.822Z,44.07
2018-12-05T04:18:52.459Z,33.40
2018-12-05T04:21:20.733Z,40.70
2018-12-05T04:23:48.321Z,34.23
2018-12-05T04:26:16.039Z,37.27
2018-12-05T04:28:43.632Z,33.20
2018-12-05T04:31:11.362Z,37.00
2018-12-05T04:33:39.036Z,37.97
2018-12-05T04:36:06.698Z,43.63
2018-12-05T04:38:34.460Z,40.90
2018-12-05T04:41:02.064Z,38.97
2018-12-05T04:43:29.763Z,31.53
2018-12-05T04:45:57.527Z,30.73
2018-12-05T04:48:25.289Z,27.67
2018-12-05T04:50:53.051Z,24.90
2018-12-05T04:53:20.740Z,24.57
2018-12-05T04:55:48.394Z,25.63
2018-12-05T04:58:16.127Z,24.87
2018-12-05T05:00:43.817Z,24.37
2018-12-05T05:03:11.411Z,22.80
2018-12-05T05:05:39.053Z,23.60
2018-12-05T05:08:06.696Z,22.40
2018-12-05T05:10:34.346Z,23.70
2018-12-05T05:13:01.930Z,22.03
2018-12-05T05:15:29.565Z,20.83
2018-12-05T05:17:57.139Z,20.30
2018-12-05T05:20:24.787Z,21.30
2018-12-05T05:22:52.448Z,20.90
2018-12-05T05:25:21.719Z,20.83
2018-12-05T05:27:49.581Z,21.80
2018-12-05T05:30:17.235Z,18.50
2018-12-05T05:32:47.083Z,17.73
2018-12-05T05:35:14.828Z,21.07
2018-12-05T05:37:42.595Z,20.20
2018-12-05T05:40:10.456Z,19.23
2018-12-05T05:42:38.052Z,19.80
2018-12-05T05:45:05.781Z,17.27
2018-12-05T05:47:33.551Z,18.03
2018-12-05T05:50:01.815Z,17.93
2018-12-05T05:52:29.531Z,17.43
2018-12-05T05:54:57.107Z,17.67
2018-12-05T05:57:24.813Z,18.53
2018-12-05T05:59:52.482Z,16.70
2018-12-05T06:02:20.415Z,17.40
2018-12-05T06:04:48.288Z,15.50
2018-12-05T06:07:16.059Z,16.77
2018-12-05T06:09:43.661Z,15.00
2018-12-05T06:12:21.330Z,15.43
2018-12-05T06:14:48.911Z,15.53
2018-12-05T06:17:16.537Z,16.80
2018-12-05T06:19:44.286Z,15.70
2018-12-05T06:22:12.177Z,14.60
2018-12-05T06:24:39.798Z,15.00
2018-12-05T06:27:07.574Z,14.03
2018-12-05T06:29:35.928Z,15.00
2018-12-05T06:32:03.612Z,14.27
2018-12-05T06:34:31.579Z,13.97
2018-12-05T06:36:59.264Z,13.43
2018-12-05T06:39:26.863Z,13.70
2018-12-05T06:41:54.472Z,13.13
2018-12-05T06:44:22.053Z,13.20
2018-12-05T06:46:49.880Z,12.90
2018-12-05T06:49:18.396Z,12.87
2018-12-05T06:51:45.982Z,13.80
2018-12-05T06:54:13.783Z,13.07
2018-12-05T06:56:41.443Z,13.00
2018-12-05T06:59:09.206Z,14.20
2018-12-05T07:01:37.199Z,12.90
2018-12-05T07:04:04.799Z,13.60
2018-12-05T07:06:33.219Z,12.37
2018-12-05T07:09:00.894Z,13.50
2018-12-05T07:11:28.476Z,12.83
2018-12-05T07:13:56.286Z,12.70
2018-12-05T07:16:23.864Z,12.87
2018-12-05T07:18:51.472Z,12.57
2018-12-05T07:21:19.789Z,12.50
2018-12-05T07:23:47.447Z,12.07
2018-12-05T07:26:15.645Z,11.57
2018-12-05T07:28:44.409Z,13.20
2018-12-05T07:31:12.097Z,12.90
2018-12-05T07:33:39.711Z,12.03
2018-12-05T07:36:07.388Z,12.50
2018-12-05T07:38:34.984Z,12.27
2018-12-05T07:41:02.708Z,11.80
2018-12-05T07:43:30.472Z,12.70
2018-12-05T07:45:58.233Z,12.37
2018-12-05T07:48:26.106Z,12.87
2018-12-05T07:50:53.783Z,12.73
2018-12-05T07:53:21.433Z,13.00
2018-12-05T07:55:49.778Z,12.53
2018-12-05T07:58:17.371Z,10.90
2018-12-05T08:00:45.117Z,13.00
2018-12-05T08:03:12.880Z,12.40
2018-12-05T08:05:40.548Z,11.50
2018-12-05T08:08:08.226Z,11.60
2018-12-05T08:10:36.066Z,13.30
2018-12-05T08:13:03.930Z,12.10
2018-12-05T08:15:31.605Z,12.13
2018-12-05T08:17:59.359Z,13.03
2018-12-05T08:20:26.981Z,11.90
2018-12-05T08:22:54.674Z,13.27
2018-12-05T08:25:23.040Z,14.63
2018-12-05T08:27:50.773Z,13.30
2018-12-05T08:30:18.474Z,13.30
2018-12-05T08:32:46.339Z,11.70
2018-12-05T08:35:14.108Z,12.20
2018-12-05T08:37:41.782Z,12.30
2018-12-05T08:40:09.438Z,10.90
2018-12-05T08:42:37.185Z,11.13
2018-12-05T08:45:04.946Z,9.20
2018-12-05T08:47:33.897Z,9.00
2018-12-05T08:50:01.806Z,9.73
2018-12-05T08:52:29.478Z,8.97
2018-12-05T08:54:57.227Z,9.10
2018-12-05T08:57:24.813Z,8.70
2018-12-05T08:59:52.458Z,8.87
2018-12-05T09:02:20.209Z,8.03
2018-12-05T09:04:47.885Z,7.77
2018-12-05T09:07:15.632Z,8.17
2018-12-05T09:09:43.233Z,8.90
2018-12-05T09:12:10.863Z,8.30
2018-12-05T09:14:38.612Z,9.20
2018-12-05T09:17:06.202Z,7.97
2018-12-05T09:19:33.939Z,8.57
2018-12-05T09:22:01.528Z,9.17
2018-12-05T09:24:29.113Z,9.73
2018-12-05T09:26:56.914Z,9.40
2018-12-05T09:29:24.496Z,8.70
2018-12-05T09:31:52.098Z,8.23
2018-12-05T09:34:19.904Z,7.90
2018-12-05T09:36:47.660Z,9.20
2018-12-05T09:39:15.330Z,8.87
2018-12-05T09:41:43.082Z,8.40
2018-12-05T09:44:10.843Z,9.27
2018-12-05T09:46:38.606Z,8.50
2018-12-05T09:49:06.376Z,9.47
2018-12-05T09:51:34.121Z,8.50
2018-12-05T09:54:01.803Z,8.63
2018-12-05T09:56:29.555Z,8.07
2018-12-05T09:58:57.317Z,8.77
2018-12-05T10:01:24.991Z,8.20
2018-12-05T10:03:53.085Z,8.33
2018-12-05T10:06:20.810Z,8.83
2018-12-05T10:08:58.609Z,8.57
2018-12-05T10:11:26.211Z,9.50
2018-12-05T10:13:53.841Z,9.03
2018-12-05T10:16:21.588Z,10.70
2018-12-05T10:18:49.172Z,8.70
2018-12-05T10:21:16.823Z,8.43
2018-12-05T10:26:10.530Z,10.00
2018-12-05T10:28:38.354Z,10.20
2018-12-05T10:31:05.964Z,9.13
2018-12-05T10:33:33.547Z,8.20
2018-12-05T10:36:01.641Z,9.10
2018-12-05T10:38:29.405Z,8.60
2018-12-05T10:40:57.017Z,9.33
2018-12-05T10:43:24.930Z,8.93
2018-12-05T10:45:52.693Z,9.70
2018-12-05T10:48:20.370Z,10.10
2018-12-05T10:50:48.023Z,8.77
2018-12-05T10:53:15.691Z,10.00
2018-12-05T10:55:43.349Z,9.80
2018-12-05T10:58:13.394Z,9.73
2018-12-05T11:00:51.683Z,10.13
2018-12-05T11:03:39.083Z,9.97
2018-12-05T11:06:12.477Z,10.70
2018-12-05T11:08:45.871Z,9.83
2018-12-05T11:11:19.369Z,10.63
2018-12-05T11:13:52.777Z,9.57
2018-12-05T11:16:26.070Z,10.50
2018-12-05T11:18:59.351Z,11.30
2018-12-05T11:21:32.778Z,10.87
2018-12-05T11:24:05.134Z,11.63
2018-12-05T11:26:33.490Z,12.27
2018-12-05T11:29:01.253Z,11.37
2018-12-05T11:31:29.015Z,11.17
2018-12-05T11:33:56.692Z,11.80
2018-12-05T11:36:24.349Z,10.93
2018-12-05T11:38:52.202Z,11.57
2018-12-05T11:41:19.964Z,11.67
2018-12-05T11:43:47.731Z,11.93
2018-12-05T11:46:15.410Z,12.50
2018-12-05T11:48:43.009Z,12.27
2018-12-05T11:51:10.585Z,12.70
2018-12-05T11:53:38.179Z,12.43
2018-12-05T11:56:05.850Z,11.47
2018-12-05T11:58:33.485Z,11.43
2018-12-05T12:01:01.099Z,12.70
2018-12-05T12:03:28.685Z,10.97
2018-12-05T12:05:56.376Z,11.73
2018-12-05T12:08:23.966Z,10.83
2018-12-05T12:10:52.130Z,10.80
2018-12-05T12:13:19.770Z,11.00
2018-12-05T12:15:47.619Z,12.20
2018-12-05T12:18:15.194Z,12.87
2018-12-05T12:20:42.939Z,12.00
2018-12-05T12:23:10.617Z,10.60
2018-12-05T12:25:38.363Z,11.47
2018-12-05T12:28:05.944Z,12.70
2018-12-05T12:30:33.593Z,12.10
2018-12-05T12:33:02.807Z,12.30
2018-12-05T12:35:31.030Z,10.90
2018-12-05T12:37:58.608Z,11.83
2018-12-05T12:40:26.298Z,10.60
2018-12-05T12:42:53.952Z,10.03
2018-12-05T12:45:21.619Z,12.60
2018-12-05T12:47:49.268Z,12.17
2018-12-05T12:50:16.868Z,11.07
2018-12-05T12:52:44.470Z,11.23
2018-12-05T12:55:12.147Z,9.90
2018-12-05T12:57:39.724Z,10.40
2018-12-05T13:00:08.199Z,10.40
2018-12-05T13:02:35.772Z,10.63
2018-12-05T13:05:03.522Z,10.83
2018-12-05T13:07:31.934Z,10.07
2018-12-05T13:09:59.552Z,10.60
2018-12-05T13:12:29.234Z,9.60
2018-12-05T13:14:56.893Z,10.70
2018-12-05T13:17:24.489Z,10.70
2018-12-05T13:19:52.113Z,11.20
2018-12-05T13:22:20.389Z,11.07
2018-12-05T13:24:48.047Z,12.47
2018-12-05T13:27:15.812Z,11.70
2018-12-05T13:29:43.675Z,11.20
2018-12-05T13:32:11.438Z,9.60
2018-12-05T13:34:39.201Z,10.47
2018-12-05T13:37:06.885Z,10.50
2018-12-05T13:39:34.466Z,11.40
2018-12-05T13:42:02.100Z,9.93
2018-12-05T13:44:29.766Z,10.93
2018-12-05T13:46:57.471Z,10.03
2018-12-05T13:49:25.176Z,9.60
2018-12-05T13:51:52.962Z,12.37
2018-12-05T13:54:20.598Z,9.77
2018-12-05T13:56:48.263Z,10.57
2018-12-05T13:59:16.030Z,9.73
2018-12-05T14:01:43.803Z,11.07
2018-12-05T14:04:11.380Z,12.90
2018-12-05T14:06:39.195Z,11.03
2018-12-05T14:09:07.025Z,11.00
2018-12-05T14:11:34.825Z,11.50
2018-12-05T14:14:02.649Z,11.60
2018-12-05T14:16:30.280Z,11.90
2018-12-05T14:18:58.111Z,10.87
2018-12-05T14:21:25.874Z,10.67
2018-12-05T14:23:53.458Z,9.80
2018-12-05T14:26:21.195Z,10.73
2018-12-05T14:28:48.957Z,11.40
2018-12-05T14:31:16.636Z,10.47
2018-12-05T14:33:44.380Z,11.70
2018-12-05T14:36:12.058Z,11.50
2018-12-05T14:38:39.674Z,10.53
2018-12-05T14:41:07.361Z,10.50
2018-12-05T14:43:35.123Z,10.93
2018-12-05T14:46:02.697Z,11.10
2018-12-05T14:48:30.344Z,10.67
2018-12-05T14:50:57.920Z,11.53
2018-12-05T14:53:25.662Z,11.23
2018-12-05T14:55:53.997Z,12.00
2018-12-05T14:58:21.602Z,11.40
2018-12-05T15:00:49.289Z,11.70
2018-12-05T15:03:17.134Z,9.40
2018-12-05T15:05:44.886Z,11.10
2018-12-05T15:08:12.647Z,11.33
2018-12-05T15:10:40.327Z,11.40
2018-12-05T15:13:07.982Z,11.63
2018-12-05T15:15:36.059Z,11.97
2018-12-05T15:18:03.653Z,11.73
2018-12-05T15:20:31.282Z,11.43
2018-12-05T15:22:59.021Z,11.63
2018-12-05T15:25:26.617Z,12.27
2018-12-05T15:27:54.286Z,11.53
2018-12-05T15:30:22.003Z,13.40
2018-12-05T15:32:49.766Z,11.73
2018-12-05T15:35:17.426Z,12.03
2018-12-05T15:37:45.035Z,11.07
2018-12-05T15:40:12.657Z,11.57
2018-12-05T15:42:40.326Z,11.43
2018-12-05T15:45:07.979Z,11.93
2018-12-05T15:47:35.782Z,11.77
2018-12-05T15:50:04.935Z,12.20
2018-12-05T15:52:32.593Z,12.53
2018-12-05T15:55:00.345Z,12.60
2018-12-05T15:57:28.019Z,13.33
2018-12-05T15:59:55.768Z,12.00
2018-12-05T16:02:23.706Z,13.30
2018-12-05T16:04:51.308Z,13.00
2018-12-05T16:07:18.967Z,12.53
2018-12-05T16:09:46.632Z,12.70
2018-12-05T16:12:14.244Z,11.57
2018-12-05T16:14:41.950Z,12.40
2018-12-05T16:17:09.527Z,11.03
2018-12-05T16:19:37.133Z,12.77
2018-12-05T16:22:04.835Z,11.57
2018-12-05T16:24:32.595Z,12.47
2018-12-05T16:27:00.152Z,11.93
2018-12-05T16:29:27.898Z,11.47
2018-12-05T16:34:22.222Z,10.80
2018-12-05T16:36:49.871Z,11.00
2018-12-05T16:39:17.456Z,10.70
2018-12-05T16:41:45.601Z,11.20
2018-12-05T16:44:13.283Z,11.30
2018-12-05T16:46:40.920Z,10.90
2018-12-05T16:49:08.516Z,10.50
2018-12-05T16:51:36.111Z,13.07
2018-12-05T16:54:03.798Z,12.17
2018-12-05T16:56:31.547Z,12.30
2018-12-05T16:58:59.309Z,12.07
2018-12-05T17:01:26.988Z,11.37
2018-12-05T17:03:54.732Z,11.77
2018-12-05T17:06:22.328Z,11.60
2018-12-05T17:08:49.966Z,10.70
2018-12-05T17:11:18.367Z,10.73
2018-12-05T17:13:45.946Z,12.57
2018-12-05T17:16:18.049Z,12.73
2018-12-05T17:18:43.172Z,12.73
2018-12-05T17:21:10.786Z,11.97
2018-12-05T17:23:38.494Z,11.50
2018-12-05T17:26:06.155Z,11.90
2018-12-05T17:28:33.741Z,13.50
2018-12-05T17:31:01.368Z,10.97
2018-12-05T17:33:28.940Z,11.47
2018-12-05T17:35:56.522Z,12.13
2018-12-05T17:38:24.260Z,12.50
2018-12-05T17:40:51.914Z,11.50
2018-12-05T17:43:19.535Z,12.87
2018-12-05T17:45:47.231Z,12.27
2018-12-05T17:48:14.889Z,12.93
2018-12-05T17:50:42.542Z,13.93
2018-12-05T17:53:10.155Z,11.83
2018-12-05T17:55:37.733Z,13.13
2018-12-05T17:58:05.512Z,12.37
2018-12-05T18:00:33.275Z,11.70
2018-12-05T18:03:00.949Z,13.00
2018-12-05T18:05:28.615Z,13.30
2018-12-05T18:07:56.358Z,11.10
2018-12-05T18:10:24.021Z,12.03
2018-12-05T18:12:51.813Z,13.13
2018-12-05T18:15:19.517Z,12.70
2018-12-05T18:17:47.217Z,11.37
2018-12-05T18:20:15.091Z,11.57
2018-12-05T18:22:42.833Z,12.43
2018-12-05T18:25:10.603Z,13.40
2018-12-05T18:27:38.357Z,12.17
2018-12-05T18:30:06.939Z,11.27
2018-12-05T18:32:34.702Z,12.23
2018-12-05T18:35:02.483Z,12.40
2018-12-05T18:37:30.059Z,11.47
2018-12-05T18:39:58.591Z,11.83
2018-12-05T18:42:26.180Z,10.97
2018-12-05T18:44:53.930Z,13.10
2018-12-05T18:47:21.600Z,10.50
2018-12-05T18:49:49.350Z,11.47
2018-12-05T18:52:17.630Z,12.03
2018-12-05T18:54:45.236Z,11.30
2018-12-05T18:57:12.860Z,12.53
2018-12-05T18:59:40.518Z,12.97
2018-12-05T19:02:08.265Z,12.10
2018-12-05T19:04:35.924Z,11.87
2018-12-05T19:07:03.598Z,12.80
2018-12-05T19:09:31.347Z,13.10
2018-12-05T19:11:58.929Z,11.90
2018-12-05T19:14:32.335Z,11.20
2018-12-05T19:17:00.061Z,10.93
2018-12-05T19:19:27.735Z,13.13
2018-12-05T19:21:55.489Z,11.50
2018-12-05T19:24:23.087Z,12.93
2018-12-05T19:26:50.810Z,11.03
2018-12-05T19:29:18.786Z,10.23
2018-12-05T19:31:46.741Z,11.43
2018-12-05T19:34:14.343Z,10.90
2018-12-05T19:36:42.184Z,12.30
2018-12-05T19:39:09.941Z,12.03
2018-12-05T19:41:37.599Z,12.87
2018-12-05T19:44:05.349Z,10.83
2018-12-05T19:46:33.310Z,12.23
2018-12-05T19:49:01.079Z,12.00
2018-12-05T19:51:28.700Z,11.37
2018-12-05T19:53:56.313Z,10.23
2018-12-05T19:56:24.062Z,11.40
2018-12-05T19:58:51.642Z,10.33
2018-12-05T20:01:19.294Z,10.87
2018-12-05T20:03:47.046Z,10.43
2018-12-05T20:06:14.712Z,11.33
2018-12-05T20:08:42.670Z,10.97
2018-12-05T20:11:10.441Z,12.03
2018-12-05T20:13:38.250Z,12.10
2018-12-05T20:16:05.958Z,11.77
2018-12-05T20:18:33.535Z,10.70
2018-12-05T20:21:01.194Z,13.40
2018-12-05T20:23:28.859Z,11.80
2018-12-05T20:25:56.505Z,11.67
2018-12-05T20:28:24.178Z,12.20
2018-12-05T20:30:51.828Z,13.33
2018-12-05T20:33:19.477Z,12.57
2018-12-05T20:35:47.241Z,11.27
2018-12-05T20:38:15.003Z,11.97
2018-12-05T20:40:42.677Z,12.00
2018-12-05T20:43:10.426Z,10.30
2018-12-05T20:45:38.189Z,11.40
2018-12-05T20:48:05.980Z,10.20
2018-12-05T20:50:34.432Z,11.53
2018-12-05T20:53:02.045Z,11.27
2018-12-05T20:55:29.994Z,11.63
2018-12-05T20:57:57.935Z,10.50
2018-12-05T21:00:26.009Z,12.70
2018-12-05T21:02:53.670Z,11.90
2018-12-05T21:05:21.664Z,10.30
2018-12-05T21:07:49.589Z,11.30
2018-12-05T21:10:17.267Z,11.17
2018-12-05T21:12:44.843Z,12.23
2018-12-05T21:15:12.471Z,12.37
2018-12-05T21:17:40.144Z,13.10
2018-12-05T21:20:07.891Z,13.43
2018-12-05T21:22:35.654Z,12.20
2018-12-05T21:25:03.852Z,12.50
2018-12-05T21:27:31.428Z,11.33
2018-12-05T21:29:59.146Z,12.60
2018-12-05T21:32:26.835Z,12.30
2018-12-05T21:34:54.525Z,13.00
2018-12-05T21:37:22.143Z,11.57
2018-12-05T21:39:49.755Z,12.30
2018-12-05T21:42:18.053Z,12.57
2018-12-05T21:44:45.852Z,12.80
2018-12-05T21:47:13.661Z,13.03
2018-12-05T21:49:41.366Z,11.97
2018-12-05T21:52:09.219Z,12.40
2018-12-05T21:54:36.834Z,11.23
2018-12-05T21:57:04.446Z,12.30
2018-12-05T21:59:32.397Z,11.60
2018-12-05T22:01:59.989Z,12.97
2018-12-05T22:04:27.806Z,11.50
2018-12-05T22:06:55.503Z,12.63
2018-12-05T22:09:23.613Z,12.80
2018-12-05T22:11:51.344Z,13.93
2018-12-05T22:14:19.013Z,13.70
2018-12-05T22:16:46.842Z,15.13
2018-12-05T22:19:14.608Z,13.53
2018-12-05T22:21:42.291Z,14.50
2018-12-05T22:24:09.742Z,14.30
2018-12-05T22:26:37.391Z,13.97
2018-12-05T22:29:05.254Z,14.23
2018-12-05T22:31:32.858Z,13.93
2018-12-05T22:34:00.434Z,13.73
2018-12-05T22:36:28.043Z,15.60
2018-12-05T22:38:55.786Z,14.40
2018-12-05T22:41:23.547Z,15.20
2018-12-05T22:43:51.233Z,15.07
2018-12-05T22:46:18.913Z,14.57
2018-12-05T22:48:46.512Z,14.50
2018-12-05T22:51:14.118Z,15.87
2018-12-05T22:53:41.783Z,15.00
2018-12-05T22:56:09.425Z,15.83
2018-12-05T22:58:37.082Z,15.20
2018-12-05T23:01:05.180Z,14.67
2018-12-05T23:03:32.752Z,14.57
2018-12-05T23:06:00.355Z,15.87
2018-12-05T23:08:28.070Z,14.27
2018-12-05T23:11:42.081Z,14.93
2018-12-05T23:14:09.827Z,15.50
2018-12-05T23:16:37.827Z,15.57
2018-12-05T23:19:05.414Z,14.83
2018-12-05T23:21:33.012Z,14.80
2018-12-05T23:24:00.595Z,14.57
2018-12-05T23:26:28.333Z,14.90
2018-12-05T23:28:56.204Z,13.27
2018-12-05T23:31:23.958Z,14.10
2018-12-05T23:33:51.902Z,12.57
2018-12-05T23:36:19.691Z,13.67
2018-12-05T23:38:47.440Z,13.10
2018-12-05T23:41:15.676Z,13.10
2018-12-05T23:43:43.501Z,10.77
2018-12-05T23:46:11.254Z,11.90
2018-12-05T23:48:39.019Z,12.30
2018-12-05T23:51:06.617Z,11.07
2018-12-05T23:53:34.338Z,11.70
2018-12-05T23:56:02.764Z,11.73
2018-12-05T23:58:30.478Z,11.90
